Airport View

Enter AWOS ICAO identifier for current METAR.

ex. KFNL

KCSM 310353Z AUTO 13009KT 10SM CLR 22/13 A3017 RMK AO2 SLP194 T02170128

31 May 2020 04:22

Frequency: 118.450

Phone: 580-562-4811

Other Area AWOS: KELK - KCLK - KHBR - KOJA

TAF KCSM 302320Z 3100/3124 14012KT P6SM SKC FM311400 16013G22KT P6SM FEW250